createdAt,value
2022-09-27T00:01:13.069Z,15.70
2022-09-27T00:03:40.723Z,15.70
2022-09-27T00:06:16.702Z,15.70
2022-09-27T00:08:43.844Z,15.70
2022-09-27T00:11:33.324Z,15.70
2022-09-27T00:14:01.008Z,15.70
2022-09-27T00:16:31.234Z,15.70
2022-09-27T00:19:02.661Z,15.70
2022-09-27T00:21:30.802Z,15.70
2022-09-27T00:23:59.465Z,15.70
2022-09-27T00:26:26.646Z,15.70
2022-09-27T00:28:53.895Z,15.70
2022-09-27T00:31:29.402Z,15.70
2022-09-27T00:33:58.901Z,15.70
2022-09-27T00:36:26.677Z,15.70
2022-09-27T00:38:53.764Z,15.80
2022-09-27T00:41:35.750Z,15.80
2022-09-27T00:44:26.073Z,15.80
2022-09-27T00:47:22.179Z,15.80
2022-09-27T00:50:15.335Z,15.80
2022-09-27T00:52:52.716Z,15.80
2022-09-27T00:55:30.408Z,15.80
2022-09-27T00:57:57.793Z,15.70
2022-09-27T01:00:24.784Z,15.70
2022-09-27T01:02:55.187Z,15.70
2022-09-27T01:05:25.919Z,15.70
2022-09-27T01:07:56.767Z,15.70
2022-09-27T01:10:25.524Z,15.70
2022-09-27T01:13:04.816Z,15.70
2022-09-27T01:15:45.466Z,15.80
2022-09-27T01:18:35.701Z,15.80
2022-09-27T01:21:08.913Z,15.70
2022-09-27T01:23:55.494Z,15.70
2022-09-27T01:26:29.659Z,15.70
2022-09-27T01:29:31.184Z,15.70
2022-09-27T01:32:05.418Z,15.70
2022-09-27T01:34:39.926Z,15.70
2022-09-27T01:37:25.476Z,15.70
2022-09-27T01:40:44.742Z,15.70
2022-09-27T01:43:54.760Z,15.70
2022-09-27T01:46:39.875Z,15.70
2022-09-27T01:49:14.491Z,15.80
2022-09-27T01:52:04.135Z,15.80
2022-09-27T01:54:43.897Z,15.80
2022-09-27T01:57:13.709Z,15.70
2022-09-27T01:59:58.344Z,15.80
2022-09-27T02:02:28.558Z,15.80
2022-09-27T02:05:01.268Z,15.70
2022-09-27T02:07:49.652Z,15.70
2022-09-27T02:10:21.960Z,15.70
2022-09-27T02:13:15.861Z,15.70
2022-09-27T02:15:58.225Z,15.70
2022-09-27T02:18:47.723Z,15.70
2022-09-27T02:21:18.195Z,15.70
2022-09-27T02:23:51.245Z,15.70
2022-09-27T02:26:27.720Z,15.70
2022-09-27T02:29:20.438Z,15.60
2022-09-27T02:31:47.329Z,15.60
2022-09-27T02:34:22.463Z,15.60
2022-09-27T02:36:50.466Z,15.60
2022-09-27T02:39:18.508Z,15.60
2022-09-27T02:41:45.371Z,15.70
2022-09-27T02:44:15.002Z,15.70
2022-09-27T02:47:08.481Z,15.60
2022-09-27T02:49:57.203Z,15.60
2022-09-27T02:52:50.079Z,15.60
2022-09-27T02:55:45.797Z,15.70
2022-09-27T02:59:25.651Z,15.70
2022-09-27T03:02:13.809Z,15.70
2022-09-27T03:04:44.107Z,15.70
2022-09-27T03:07:12.738Z,15.70
2022-09-27T03:09:49.143Z,15.70
2022-09-27T03:12:25.998Z,15.70
2022-09-27T03:14:58.019Z,15.70
2022-09-27T03:17:25.258Z,15.70
2022-09-27T03:19:52.647Z,15.70
2022-09-27T03:22:19.509Z,15.70
2022-09-27T03:24:46.888Z,15.70
2022-09-27T03:27:13.839Z,15.80
2022-09-27T03:29:40.687Z,15.80
2022-09-27T03:32:07.745Z,15.80
2022-09-27T03:34:34.515Z,15.80
2022-09-27T03:37:02.051Z,15.80
2022-09-27T03:39:28.826Z,15.70
2022-09-27T03:41:55.592Z,15.80
2022-09-27T03:44:22.405Z,15.80
2022-09-27T03:46:49.257Z,15.70
2022-09-27T03:49:16.200Z,15.70
2022-09-27T03:51:43.191Z,15.70
2022-09-27T03:54:10.243Z,15.70
2022-09-27T03:56:37.027Z,15.70
2022-09-27T03:59:03.873Z,15.70
2022-09-27T04:01:30.800Z,15.80
2022-09-27T04:03:57.600Z,15.70
2022-09-27T04:06:24.544Z,15.70
2022-09-27T04:08:51.321Z,15.70
2022-09-27T04:11:18.170Z,15.70
2022-09-27T04:13:45.172Z,15.70
2022-09-27T04:16:12.008Z,15.70
2022-09-27T04:18:38.837Z,15.70
2022-09-27T04:21:05.716Z,15.70
2022-09-27T04:23:32.508Z,15.70
2022-09-27T04:25:59.292Z,15.70
2022-09-27T04:28:26.094Z,15.70
2022-09-27T04:30:54.269Z,15.70
2022-09-27T04:33:21.562Z,15.70
2022-09-27T04:36:07.211Z,15.70
2022-09-27T04:38:34.024Z,15.70
2022-09-27T04:41:02.140Z,15.60
2022-09-27T04:43:30.207Z,15.60
2022-09-27T04:45:57.180Z,15.60
2022-09-27T04:48:24.604Z,15.60
2022-09-27T04:50:59.053Z,15.60
2022-09-27T04:53:26.474Z,15.60
2022-09-27T04:55:54.910Z,15.60
2022-09-27T04:58:23.072Z,15.70
2022-09-27T05:00:54.597Z,15.70
2022-09-27T05:03:22.249Z,15.70
2022-09-27T05:05:49.093Z,15.70
2022-09-27T05:08:15.895Z,15.60
2022-09-27T05:10:42.674Z,15.60
2022-09-27T05:13:09.806Z,15.60
2022-09-27T05:15:36.538Z,15.60
2022-09-27T05:18:03.504Z,15.50
2022-09-27T05:20:30.364Z,15.50
2022-09-27T05:22:57.189Z,15.50
2022-09-27T05:25:24.084Z,15.60
2022-09-27T05:27:51.233Z,15.60
2022-09-27T05:30:18.290Z,15.50
2022-09-27T05:32:50.243Z,15.50
2022-09-27T05:35:19.327Z,15.50
2022-09-27T05:38:00.255Z,15.50
2022-09-27T05:40:42.804Z,15.50
2022-09-27T05:43:10.128Z,15.50
2022-09-27T05:45:37.211Z,15.40
2022-09-27T05:48:05.273Z,15.40
2022-09-27T05:50:32.832Z,15.40
2022-09-27T05:52:59.619Z,15.40
2022-09-27T05:55:26.608Z,15.40
2022-09-27T05:58:07.766Z,15.50
2022-09-27T06:00:35.808Z,15.40
2022-09-27T06:03:06.401Z,15.40
2022-09-27T06:05:36.787Z,15.40
2022-09-27T06:08:09.625Z,15.40
2022-09-27T06:10:37.057Z,15.50
2022-09-27T06:13:07.801Z,15.50
2022-09-27T06:15:37.833Z,15.60
2022-09-27T06:18:13.348Z,15.60
2022-09-27T06:20:42.986Z,15.50
2022-09-27T06:23:22.532Z,15.60
2022-09-27T06:25:50.973Z,15.50
2022-09-27T06:28:18.468Z,15.60
2022-09-27T06:30:48.011Z,15.60
2022-09-27T06:33:20.046Z,15.60
2022-09-27T06:35:48.828Z,15.60
2022-09-27T06:38:17.482Z,15.60
2022-09-27T06:40:48.110Z,15.60
2022-09-27T06:43:17.261Z,15.50
2022-09-27T06:45:44.359Z,15.50
2022-09-27T06:48:13.281Z,15.50
2022-09-27T06:50:42.171Z,15.40
2022-09-27T06:53:13.112Z,15.40
2022-09-27T06:55:40.632Z,15.40
2022-09-27T06:58:28.493Z,15.50
2022-09-27T07:00:55.477Z,15.50
2022-09-27T07:03:23.926Z,15.60
2022-09-27T07:05:59.064Z,15.60
2022-09-27T07:08:28.765Z,15.60
2022-09-27T07:11:01.003Z,15.50
2022-09-27T07:13:34.480Z,15.60
2022-09-27T07:16:01.881Z,15.60
2022-09-27T07:18:29.121Z,15.60
2022-09-27T07:21:00.138Z,15.60
2022-09-27T07:23:27.679Z,15.60
2022-09-27T07:25:54.650Z,15.60
2022-09-27T07:28:22.240Z,15.70
2022-09-27T07:30:49.774Z,15.60
2022-09-27T07:33:16.697Z,15.60
2022-09-27T07:35:43.858Z,15.60
2022-09-27T07:38:16.588Z,15.60
2022-09-27T07:40:44.189Z,15.60
2022-09-27T07:43:12.299Z,15.70
2022-09-27T07:45:39.737Z,15.70
2022-09-27T07:48:08.104Z,15.70
2022-09-27T07:50:35.343Z,15.70
2022-09-27T07:53:02.432Z,15.70
2022-09-27T07:55:29.261Z,15.60
2022-09-27T07:58:08.839Z,15.60
2022-09-27T08:00:37.227Z,15.60
2022-09-27T08:03:06.968Z,15.70
2022-09-27T08:05:35.956Z,15.80
2022-09-27T08:08:03.853Z,15.80
2022-09-27T08:10:34.617Z,15.80
2022-09-27T08:13:03.626Z,15.80
2022-09-27T08:15:36.244Z,15.80
2022-09-27T08:18:03.065Z,15.90
2022-09-27T08:20:29.868Z,15.90
2022-09-27T08:22:56.869Z,15.90
2022-09-27T08:25:24.593Z,15.90
2022-09-27T08:27:58.754Z,15.90
2022-09-27T08:30:26.224Z,15.90
2022-09-27T08:32:57.321Z,15.90
2022-09-27T08:35:24.267Z,15.90
2022-09-27T08:37:59.926Z,16.00
2022-09-27T08:40:57.220Z,16.00
2022-09-27T08:43:45.521Z,16.10
2022-09-27T08:47:05.177Z,16.10
2022-09-27T08:49:39.816Z,16.10
2022-09-27T08:52:13.287Z,16.00
2022-09-27T08:54:40.364Z,16.00
2022-09-27T08:57:12.804Z,16.00
2022-09-27T09:00:11.138Z,16.00
2022-09-27T09:02:38.247Z,16.10
2022-09-27T09:05:17.418Z,16.10
2022-09-27T09:08:10.066Z,16.10
2022-09-27T09:11:04.773Z,16.10
2022-09-27T09:13:40.886Z,16.20
2022-09-27T09:16:17.108Z,16.20
2022-09-27T09:19:00.577Z,16.20
2022-09-27T09:21:48.435Z,16.30
2022-09-27T09:24:29.780Z,16.30
2022-09-27T09:27:35.838Z,16.20
2022-09-27T09:30:23.056Z,16.20
2022-09-27T09:33:11.118Z,16.30
2022-09-27T09:35:58.963Z,16.30
2022-09-27T09:39:11.196Z,16.30
2022-09-27T09:42:02.423Z,16.30
2022-09-27T09:44:45.483Z,16.30
2022-09-27T09:47:30.813Z,16.30
2022-09-27T09:50:03.701Z,16.30
2022-09-27T09:52:41.704Z,16.40
2022-09-27T09:55:19.187Z,16.40
2022-09-27T09:57:59.834Z,16.40
2022-09-27T10:00:27.021Z,16.40
2022-09-27T10:02:59.067Z,16.40
2022-09-27T10:05:28.392Z,16.40
2022-09-27T10:07:59.308Z,16.40
2022-09-27T10:10:26.909Z,16.40
2022-09-27T10:12:53.972Z,16.40
2022-09-27T10:15:23.640Z,16.40
2022-09-27T10:17:53.829Z,16.40
2022-09-27T10:20:42.220Z,16.40
2022-09-27T10:23:25.236Z,16.40
2022-09-27T10:26:03.824Z,16.40
2022-09-27T10:28:33.017Z,16.50
2022-09-27T10:31:02.995Z,16.50
2022-09-27T10:33:31.801Z,16.50
2022-09-27T10:36:00.130Z,16.60
2022-09-27T10:38:37.360Z,16.60
2022-09-27T10:41:29.055Z,16.60
2022-09-27T10:43:55.923Z,16.60
2022-09-27T10:46:27.909Z,16.60
2022-09-27T10:49:16.400Z,16.70
2022-09-27T10:51:44.381Z,16.70
2022-09-27T10:54:34.610Z,16.70
2022-09-27T10:57:05.941Z,16.70
2022-09-27T10:59:39.429Z,16.70
2022-09-27T11:02:19.642Z,16.80
2022-09-27T11:05:27.887Z,16.80
2022-09-27T11:07:56.717Z,16.80
2022-09-27T11:10:29.111Z,16.80
2022-09-27T11:13:14.516Z,16.90
2022-09-27T11:16:06.056Z,16.90
2022-09-27T11:19:01.196Z,16.90
2022-09-27T11:22:19.869Z,16.90
2022-09-27T11:24:49.701Z,16.80
2022-09-27T11:27:28.757Z,16.80
2022-09-27T11:30:10.136Z,16.80
2022-09-27T11:32:37.021Z,16.80
2022-09-27T11:35:32.647Z,16.90
2022-09-27T11:38:34.545Z,16.90
2022-09-27T11:41:32.468Z,16.90
2022-09-27T11:44:18.019Z,16.90
2022-09-27T11:47:09.307Z,17.00
2022-09-27T11:50:13.495Z,17.10
2022-09-27T11:53:01.644Z,17.10
2022-09-27T11:55:51.623Z,17.10
2022-09-27T11:58:38.743Z,17.20
2022-09-27T12:01:27.042Z,17.20
2022-09-27T12:04:15.441Z,17.30
2022-09-27T12:06:56.289Z,17.30
2022-09-27T12:09:33.380Z,17.30
2022-09-27T12:12:20.852Z,17.30
2022-09-27T12:14:53.996Z,17.30
2022-09-27T12:17:25.756Z,17.30
2022-09-27T12:20:00.202Z,17.30
2022-09-27T12:22:58.545Z,17.40
2022-09-27T12:25:32.143Z,17.50
2022-09-27T12:28:28.102Z,17.50
2022-09-27T12:31:27.500Z,17.50
2022-09-27T12:33:58.810Z,17.60
2022-09-27T12:36:37.417Z,17.60
2022-09-27T12:39:28.834Z,17.60
2022-09-27T12:42:06.151Z,17.60
2022-09-27T12:44:41.187Z,17.60
2022-09-27T12:47:13.464Z,17.70
2022-09-27T12:50:03.263Z,17.70
2022-09-27T12:52:36.479Z,17.70
2022-09-27T12:55:27.843Z,17.80
2022-09-27T12:58:22.878Z,17.70
2022-09-27T13:01:19.781Z,17.90
2022-09-27T13:04:20.597Z,17.90
2022-09-27T13:06:55.724Z,18.00
2022-09-27T13:09:50.313Z,18.00
2022-09-27T13:12:24.920Z,18.00
2022-09-27T13:15:18.113Z,18.00
2022-09-27T13:17:44.930Z,18.00
2022-09-27T13:20:36.748Z,18.00
2022-09-27T13:23:23.486Z,18.00
2022-09-27T13:26:04.017Z,18.00
2022-09-27T13:28:33.561Z,18.10
2022-09-27T13:31:15.355Z,18.00
2022-09-27T13:33:47.880Z,18.00
2022-09-27T13:36:21.656Z,18.00
2022-09-27T13:39:04.762Z,18.00
2022-09-27T13:41:40.115Z,18.00
2022-09-27T13:44:35.541Z,17.90
2022-09-27T13:47:14.504Z,17.90
2022-09-27T13:49:46.725Z,18.00
2022-09-27T13:52:22.145Z,18.00
2022-09-27T13:54:57.033Z,18.00
2022-09-27T13:57:55.637Z,18.00
2022-09-27T14:00:31.248Z,18.00
2022-09-27T14:03:06.638Z,18.10
2022-09-27T14:05:41.418Z,18.10
2022-09-27T14:08:20.270Z,18.10
2022-09-27T14:10:47.970Z,18.10
2022-09-27T14:13:20.348Z,18.10
2022-09-27T14:15:48.091Z,18.10
2022-09-27T14:18:15.113Z,18.10
2022-09-27T14:20:45.610Z,18.10
2022-09-27T14:23:24.664Z,18.00
2022-09-27T14:25:54.068Z,18.00
2022-09-27T14:28:26.785Z,18.00
2022-09-27T14:31:17.782Z,18.00
2022-09-27T14:33:45.621Z,18.00
2022-09-27T14:36:48.733Z,18.00
2022-09-27T14:39:21.790Z,18.00
2022-09-27T14:41:48.894Z,17.90
2022-09-27T14:44:25.900Z,17.90
2022-09-27T14:47:18.482Z,17.80
2022-09-27T14:49:51.184Z,17.80
2022-09-27T14:52:27.836Z,17.80
2022-09-27T14:55:09.481Z,17.80
2022-09-27T14:57:37.305Z,17.80
2022-09-27T15:00:26.284Z,17.90
2022-09-27T15:02:59.056Z,17.90
2022-09-27T15:05:29.443Z,17.90
2022-09-27T15:07:58.558Z,17.90
2022-09-27T15:10:28.429Z,17.80
2022-09-27T15:13:00.035Z,17.80
2022-09-27T15:15:32.989Z,17.80
2022-09-27T15:18:00.445Z,17.80
2022-09-27T15:20:37.087Z,17.80
2022-09-27T15:23:06.097Z,17.70
2022-09-27T15:25:42.438Z,17.70
2022-09-27T15:28:12.233Z,17.70
2022-09-27T15:30:51.066Z,17.70
2022-09-27T15:33:25.198Z,17.70
2022-09-27T15:35:54.406Z,17.60
2022-09-27T15:38:32.682Z,17.70
2022-09-27T15:41:05.662Z,17.70
2022-09-27T15:43:43.036Z,17.70
2022-09-27T15:46:22.304Z,17.60
2022-09-27T15:49:17.320Z,17.60
2022-09-27T15:51:55.307Z,17.60
2022-09-27T15:54:24.136Z,17.60
2022-09-27T15:56:55.532Z,17.60
2022-09-27T15:59:27.872Z,17.60
2022-09-27T16:02:02.045Z,17.60
2022-09-27T16:04:32.603Z,17.60
2022-09-27T16:07:02.289Z,17.50
2022-09-27T16:09:29.843Z,17.50
2022-09-27T16:11:57.369Z,17.50
2022-09-27T16:14:24.199Z,17.50
2022-09-27T16:16:59.226Z,17.40
2022-09-27T16:19:26.259Z,17.40
2022-09-27T16:21:55.760Z,17.30
2022-09-27T16:24:24.358Z,17.30
2022-09-27T16:26:51.360Z,17.30
2022-09-27T16:29:18.303Z,17.20
2022-09-27T16:31:45.816Z,17.20
2022-09-27T16:34:12.905Z,17.20
2022-09-27T16:36:40.747Z,17.20
2022-09-27T16:39:10.640Z,17.20
2022-09-27T16:41:37.428Z,17.20
2022-09-27T16:44:17.493Z,17.20
2022-09-27T16:46:47.971Z,17.20
2022-09-27T16:49:33.353Z,17.20
2022-09-27T16:52:00.248Z,17.20
2022-09-27T16:54:31.159Z,17.10
2022-09-27T16:56:59.424Z,17.10
2022-09-27T16:59:26.668Z,17.10
2022-09-27T17:01:58.098Z,17.00
2022-09-27T17:04:27.478Z,17.00
2022-09-27T17:06:57.892Z,17.00
2022-09-27T17:09:25.103Z,17.00
2022-09-27T17:11:52.226Z,17.00
2022-09-27T17:14:19.365Z,16.90
2022-09-27T17:16:47.494Z,16.90
2022-09-27T17:19:15.859Z,16.80
2022-09-27T17:21:43.598Z,16.80
2022-09-27T17:24:10.686Z,16.80
2022-09-27T17:26:38.004Z,16.70
2022-09-27T17:29:04.815Z,16.70
2022-09-27T17:31:34.211Z,16.70
2022-09-27T17:34:01.943Z,16.70
2022-09-27T17:36:33.976Z,16.60
2022-09-27T17:39:01.748Z,16.60
2022-09-27T17:41:29.666Z,16.50
2022-09-27T17:44:01.521Z,16.50
2022-09-27T17:46:36.282Z,16.50
2022-09-27T17:49:22.117Z,16.50
2022-09-27T17:51:53.466Z,16.40
2022-09-27T17:54:23.434Z,16.40
2022-09-27T17:56:51.360Z,16.40
2022-09-27T17:59:19.030Z,16.30
2022-09-27T18:01:47.824Z,16.30
2022-09-27T18:04:16.579Z,16.30
2022-09-27T18:06:46.264Z,16.20
2022-09-27T18:09:15.214Z,16.20
2022-09-27T18:11:42.087Z,16.20
2022-09-27T18:14:10.687Z,16.20
2022-09-27T18:16:43.029Z,16.20
2022-09-27T18:19:15.646Z,16.20
2022-09-27T18:21:42.956Z,16.20
2022-09-27T18:24:10.928Z,16.10
2022-09-27T18:26:38.969Z,16.10
2022-09-27T18:29:09.821Z,16.10
2022-09-27T18:31:37.771Z,16.10
2022-09-27T18:34:04.567Z,16.10
2022-09-27T18:36:31.501Z,16.10
2022-09-27T18:39:03.558Z,16.10
2022-09-27T18:41:34.091Z,16.20
2022-09-27T18:44:03.377Z,16.20
2022-09-27T18:46:36.733Z,16.20
2022-09-27T18:49:11.596Z,16.10
2022-09-27T18:51:43.620Z,16.10
2022-09-27T18:54:19.346Z,16.10
2022-09-27T18:56:48.372Z,16.10
2022-09-27T18:59:15.845Z,16.10
2022-09-27T19:01:45.867Z,16.10
2022-09-27T19:04:24.044Z,16.10
2022-09-27T19:06:52.751Z,16.10
2022-09-27T19:09:19.803Z,16.10
2022-09-27T19:11:46.812Z,16.00
2022-09-27T19:14:22.409Z,16.00
2022-09-27T19:16:50.531Z,16.00
2022-09-27T19:19:19.221Z,16.00
2022-09-27T19:21:46.890Z,16.00
2022-09-27T19:24:18.931Z,16.00
2022-09-27T19:26:45.888Z,16.00
2022-09-27T19:29:13.712Z,15.90
2022-09-27T19:31:41.549Z,15.90
2022-09-27T19:34:08.367Z,15.90
2022-09-27T19:36:35.194Z,15.90
2022-09-27T19:39:02.464Z,15.90
2022-09-27T19:41:29.382Z,15.90
2022-09-27T19:43:56.873Z,15.90
2022-09-27T19:46:25.513Z,15.90
2022-09-27T19:48:53.133Z,15.90
2022-09-27T19:51:22.389Z,15.90
2022-09-27T19:53:50.582Z,15.90
2022-09-27T19:56:17.869Z,15.90
2022-09-27T19:58:45.497Z,15.90
2022-09-27T20:01:19.284Z,15.80
2022-09-27T20:03:47.339Z,15.80
2022-09-27T20:06:16.412Z,15.80
2022-09-27T20:08:43.947Z,15.70
2022-09-27T20:11:16.077Z,15.70
2022-09-27T20:13:43.730Z,15.60
2022-09-27T20:16:13.193Z,15.60
2022-09-27T20:18:51.311Z,15.60
2022-09-27T20:21:19.352Z,15.70
2022-09-27T20:23:50.030Z,15.80
2022-09-27T20:26:18.946Z,15.80
2022-09-27T20:28:47.806Z,15.80
2022-09-27T20:31:17.294Z,15.90
2022-09-27T20:33:46.399Z,15.90
2022-09-27T20:36:27.873Z,15.90
2022-09-27T20:39:01.918Z,15.90
2022-09-27T20:41:31.841Z,15.90
2022-09-27T20:44:00.929Z,15.90
2022-09-27T20:46:28.070Z,15.90
2022-09-27T20:49:00.482Z,15.90
2022-09-27T20:51:28.783Z,15.80
2022-09-27T20:53:55.755Z,15.80
2022-09-27T20:56:24.041Z,15.80
2022-09-27T20:58:54.991Z,15.80
2022-09-27T21:01:23.272Z,15.80
2022-09-27T21:03:58.320Z,15.80
2022-09-27T21:06:25.349Z,15.90
2022-09-27T21:08:52.361Z,15.90
2022-09-27T21:11:20.230Z,15.90
2022-09-27T21:13:48.569Z,15.90
2022-09-27T21:16:17.943Z,15.90
2022-09-27T21:18:45.260Z,15.90
2022-09-27T21:21:13.668Z,15.90
2022-09-27T21:23:44.745Z,15.90
2022-09-27T21:26:20.396Z,15.90
2022-09-27T21:28:49.232Z,15.90
2022-09-27T21:31:22.507Z,15.80
2022-09-27T21:33:55.104Z,15.80
2022-09-27T21:36:23.465Z,15.80
2022-09-27T21:38:50.712Z,15.80
2022-09-27T21:41:18.000Z,15.80
2022-09-27T21:43:46.372Z,15.90
2022-09-27T21:46:14.285Z,15.90
2022-09-27T21:48:43.156Z,15.90
2022-09-27T21:51:19.160Z,15.90
2022-09-27T21:53:57.259Z,15.90
2022-09-27T21:56:26.327Z,15.90
2022-09-27T21:58:53.150Z,15.90
2022-09-27T22:01:25.710Z,15.90
2022-09-27T22:03:54.276Z,15.90
2022-09-27T22:06:26.637Z,15.90
2022-09-27T22:08:54.822Z,15.90
2022-09-27T22:11:24.637Z,15.90
2022-09-27T22:13:51.742Z,15.90
2022-09-27T22:16:20.715Z,15.90
2022-09-27T22:18:51.933Z,15.90
2022-09-27T22:21:21.782Z,15.90
2022-09-27T22:23:52.827Z,15.90
2022-09-27T22:26:22.443Z,15.90
2022-09-27T22:28:49.297Z,15.90
2022-09-27T22:31:20.712Z,15.90
2022-09-27T22:34:01.257Z,15.90
2022-09-27T22:36:29.529Z,15.90
2022-09-27T22:38:56.520Z,15.90
2022-09-27T22:41:24.292Z,15.90
2022-09-27T22:43:54.518Z,15.90
2022-09-27T22:46:22.172Z,16.00
2022-09-27T22:48:49.864Z,16.00
2022-09-27T22:51:17.530Z,16.00
2022-09-27T22:53:44.523Z,15.90
2022-09-27T22:56:17.659Z,15.90
2022-09-27T22:58:45.368Z,15.90
2022-09-27T23:01:19.046Z,15.90
2022-09-27T23:03:47.192Z,15.90
2022-09-27T23:06:15.948Z,15.90
2022-09-27T23:08:43.466Z,15.90
2022-09-27T23:11:15.391Z,15.90
2022-09-27T23:13:44.002Z,15.90
2022-09-27T23:16:20.277Z,15.90
2022-09-27T23:18:47.881Z,15.90
2022-09-27T23:21:16.141Z,15.90
2022-09-27T23:23:45.199Z,15.90
2022-09-27T23:26:16.322Z,15.90
2022-09-27T23:28:44.264Z,15.90
2022-09-27T23:31:13.911Z,15.90
2022-09-27T23:33:43.393Z,15.90
2022-09-27T23:36:15.222Z,15.90
2022-09-27T23:38:43.489Z,15.90
2022-09-27T23:41:10.284Z,15.90
2022-09-27T23:43:37.209Z,15.90
2022-09-27T23:46:05.380Z,15.90
2022-09-27T23:48:33.986Z,15.90
2022-09-27T23:51:01.619Z,15.90
2022-09-27T23:53:28.770Z,15.90
2022-09-27T23:56:13.008Z,15.90
2022-09-27T23:58:42.142Z,15.90
